Time;durP1;ratioP1;P1;durP2;ratioP2;P2;SDS_P1;SDS_P2;PMS_P1;PMS_P2;Temp;Humidity;BMP_temperature;BMP_pressure;BME280_temperature;BME280_humidity;BME280_pressure;Samples;Min_cycle;Max_cycle;Signal;HPM_P1;HPM_P2
2023/07/12 00:00:25;;;;;;;;;20.00;18.00;;;;;24.68;48.36;100675.70;110175;1264;22281;-41
2023/07/12 00:03:12;;;;;;;;;18.67;18.00;;;;;24.67;48.39;100665.49;110183;1265;22561;-41
2023/07/12 00:05:39;;;;;;;;;20.50;20.00;;;;;24.66;48.45;100659.83;110202;1264;18586;-41
2023/07/12 00:08:07;;;;;;;;;21.00;21.00;;;;;24.63;48.45;100652.98;110194;1264;19378;-41
2023/07/12 00:10:35;;;;;;;;;23.33;20.67;;;;;24.57;48.59;100644.50;110190;1249;20014;-41
2023/07/12 00:13:02;;;;;;;;;22.50;20.50;;;;;24.55;48.49;100630.69;110228;1250;20247;-40
2023/07/12 00:15:29;;;;;;;;;24.00;22.00;;;;;24.51;48.64;100622.84;110279;1249;20796;-40
2023/07/12 00:17:57;;;;;;;;;21.00;20.00;;;;;24.43;48.76;100616.77;110218;1251;20046;-40
2023/07/12 00:20:24;;;;;;;;;21.00;21.00;;;;;24.44;48.84;100616.20;110245;1250;20144;-40
2023/07/12 00:22:52;;;;;;;;;24.00;21.00;;;;;24.38;48.77;100606.44;110252;1260;20788;-40
2023/07/12 00:25:19;;;;;;;;;20.00;20.00;;;;;24.37;48.87;100607.27;110205;1257;19990;-38
2023/07/12 00:27:47;;;;;;;;;20.00;19.00;;;;;24.36;48.96;100607.77;110262;1251;20189;-41
2023/07/12 00:30:14;;;;;;;;;25.00;23.00;;;;;24.35;48.89;100607.71;110242;1264;22050;-41
2023/07/12 00:32:41;;;;;;;;;26.33;24.00;;;;;24.33;48.94;100600.56;110188;1264;18772;-40
2023/07/12 00:35:09;;;;;;;;;24.00;21.00;;;;;24.32;48.91;100588.90;110254;1250;18755;-40
2023/07/12 00:37:36;;;;;;;;;18.00;18.00;;;;;24.30;48.83;100584.23;110232;1250;20844;-39
2023/07/12 00:40:04;;;;;;;;;21.00;21.00;;;;;24.30;48.87;100587.65;110228;1250;22320;-40
2023/07/12 00:42:31;;;;;;;;;25.00;25.00;;;;;24.24;49.00;100592.39;110289;1256;23758;-40
2023/07/12 00:44:59;;;;;;;;;20.00;20.00;;;;;24.21;49.12;100593.81;110218;1264;19372;-39
2023/07/12 00:47:26;;;;;;;;;21.00;20.50;;;;;24.23;48.96;100603.63;110193;1264;18614;-40
2023/07/12 00:49:54;;;;;;;;;21.00;21.00;;;;;24.25;49.01;100608.65;110165;1250;22233;-39
2023/07/12 00:52:21;;;;;;;;;22.00;21.00;;;;;24.26;49.21;100606.10;110242;1264;20303;-39
2023/07/12 00:54:49;;;;;;;;;21.00;21.00;;;;;24.24;49.15;100603.73;110222;1250;20023;-39
2023/07/12 00:57:16;;;;;;;;;22.00;20.00;;;;;24.22;49.30;100592.55;110191;1264;18941;-40
2023/07/12 00:59:44;;;;;;;;;23.00;22.00;;;;;24.21;49.47;100589.23;110213;1264;20732;-39
2023/07/12 01:02:12;;;;;;;;;21.50;20.00;;;;;24.20;49.58;100590.52;110238;1256;20031;-39
2023/07/12 01:04:39;;;;;;;;;24.00;21.00;;;;;24.17;49.71;100577.27;110132;1248;18691;-39
2023/07/12 01:07:06;;;;;;;;;22.33;22.33;;;;;24.13;49.79;100574.64;110183;1249;22173;-39
2023/07/12 01:09:34;;;;;;;;;24.00;22.00;;;;;24.09;49.76;100570.84;110199;1264;19963;-40
2023/07/12 01:12:01;;;;;;;;;24.33;22.00;;;;;24.05;49.66;100570.81;110185;1250;21874;-40
2023/07/12 01:14:29;;;;;;;;;23.00;20.00;;;;;24.02;49.63;100565.33;110229;1250;22264;-40
2023/07/12 01:16:56;;;;;;;;;463.00;463.00;;;;;24.05;49.48;100559.31;110229;1256;20217;-39
2023/07/12 01:19:24;;;;;;;;;21.00;20.00;;;;;24.05;49.51;100558.59;110168;1257;20067;-39
2023/07/12 01:21:51;;;;;;;;;23.00;21.00;;;;;24.01;49.49;100559.41;110172;1264;19347;-40
2023/07/12 01:24:18;;;;;;;;;23.00;23.00;;;;;24.02;49.52;100556.27;110220;1264;19036;-39
2023/07/12 01:26:46;;;;;;;;;23.00;23.00;;;;;23.99;49.68;100553.17;110205;1249;18864;-39
2023/07/12 01:29:13;;;;;;;;;25.50;23.00;;;;;24.01;49.70;100558.73;110213;1264;19376;-41
2023/07/12 01:31:41;;;;;;;;;26.00;23.50;;;;;24.04;49.67;100561.63;110199;1250;20054;-39
2023/07/12 01:34:08;;;;;;;;;25.00;24.00;;;;;24.05;49.68;100559.17;110161;1256;20362;-39
2023/07/12 01:36:35;;;;;;;;;23.50;23.50;;;;;23.94;49.77;100554.36;110185;1250;20825;-39
2023/07/12 01:39:03;;;;;;;;;26.00;21.00;;;;;23.84;50.00;100554.58;110209;1250;21230;-39
2023/07/12 01:41:30;;;;;;;;;23.00;21.00;;;;;23.90;49.96;100555.77;110230;1249;22713;-39
2023/07/12 01:43:58;;;;;;;;;25.00;23.50;;;;;23.92;49.94;100560.13;110200;1256;19407;-40
2023/07/12 01:46:25;;;;;;;;;25.00;24.00;;;;;23.94;49.83;100560.42;110183;1264;18740;-40
2023/07/12 01:48:53;;;;;;;;;26.50;24.00;;;;;23.93;49.82;100557.89;110168;1264;18718;-40
2023/07/12 01:51:20;;;;;;;;;26.50;22.00;;;;;23.93;49.85;100563.08;110174;1264;19582;-40
2023/07/12 01:53:48;;;;;;;;;23.00;23.00;;;;;23.93;49.86;100562.11;110192;1264;19998;-40
2023/07/12 01:56:16;;;;;;;;;23.00;21.00;;;;;23.88;49.96;100557.33;110287;1248;21148;-40
2023/07/12 01:58:43;;;;;;;;;28.33;26.33;;;;;23.83;50.17;100562.01;110195;1250;20871;-40
2023/07/12 02:01:11;;;;;;;;;26.00;23.00;;;;;23.87;50.28;100559.71;110221;1249;22651;-40
2023/07/12 02:03:38;;;;;;;;;27.00;25.00;;;;;23.81;50.31;100557.04;110184;1264;18712;-40
2023/07/12 02:06:05;;;;;;;;;28.00;25.00;;;;;23.75;50.60;100558.81;110215;1250;20612;-40
2023/07/12 02:08:33;;;;;;;;;27.00;24.00;;;;;23.75;50.64;100557.04;110197;1251;20080;-40
2023/07/12 02:11:00;;;;;;;;;24.00;23.67;;;;;23.71;50.93;100549.48;110201;1250;20182;-40
2023/07/12 02:13:28;;;;;;;;;25.00;24.00;;;;;23.72;51.06;100552.92;110204;1250;20913;-40
2023/07/12 02:15:55;;;;;;;;;29.00;27.50;;;;;23.73;51.34;100551.84;110166;1264;20152;-39
2023/07/12 02:18:23;;;;;;;;;28.00;25.00;;;;;23.70;51.46;100548.71;110196;1264;18892;-40
2023/07/12 02:20:50;;;;;;;;;24.00;24.00;;;;;23.73;51.45;100551.14;110185;1249;19342;-40
2023/07/12 02:23:17;;;;;;;;;27.00;27.00;;;;;23.72;51.31;100546.67;110160;1250;20245;-40
2023/07/12 02:25:45;;;;;;;;;30.00;28.00;;;;;23.64;51.59;100543.28;110181;1264;22768;-40
2023/07/12 02:28:12;;;;;;;;;29.50;27.50;;;;;23.61;51.92;100548.46;110183;1257;23028;-40
2023/07/12 02:30:40;;;;;;;;;27.50;25.50;;;;;23.67;51.92;100545.16;110203;1250;19886;-40
2023/07/12 02:33:07;;;;;;;;;28.50;27.50;;;;;23.67;51.80;100540.57;110204;1250;22258;-40
2023/07/12 02:35:34;;;;;;;;;30.00;26.00;;;;;23.61;51.97;100539.09;110199;1264;19350;-40
2023/07/12 02:38:02;;;;;;;;;25.50;24.00;;;;;23.63;52.18;100537.63;110189;1250;18628;-40
2023/07/12 02:40:29;;;;;;;;;26.00;24.00;;;;;23.62;52.15;100525.14;110208;1257;20353;-40
2023/07/12 02:42:57;;;;;;;;;30.00;27.00;;;;;23.60;52.17;100521.23;110213;1256;23751;-40
2023/07/12 02:45:25;;;;;;;;;27.00;26.00;;;;;23.51;52.42;100512.54;110221;1264;21997;-40
2023/07/12 02:47:52;;;;;;;;;26.00;24.00;;;;;23.46;52.49;100503.15;110226;1265;18780;-40
2023/07/12 02:50:19;;;;;;;;;29.00;27.50;;;;;23.48;52.64;100495.88;110199;1250;20775;-41
2023/07/12 02:52:47;;;;;;;;;28.00;27.00;;;;;23.46;52.35;100491.52;110175;1256;18637;-40
2023/07/12 02:55:14;;;;;;;;;29.00;24.50;;;;;23.45;52.62;100487.50;110212;1264;19099;-40
2023/07/12 02:57:42;;;;;;;;;33.00;30.00;;;;;23.33;52.77;100483.84;110210;1250;21101;-40
2023/07/12 03:00:09;;;;;;;;;31.00;30.00;;;;;23.37;52.77;100486.93;110191;1250;22761;-40
2023/07/12 03:02:37;;;;;;;;;30.00;28.00;;;;;23.39;52.84;100484.67;110202;1264;18698;-39
2023/07/12 03:05:04;;;;;;;;;33.00;30.00;;;;;23.32;53.10;100485.71;110197;1250;20799;-40
2023/07/12 03:07:32;;;;;;;;;31.00;29.00;;;;;23.19;53.52;100484.96;110125;1256;19871;-40
2023/07/12 03:09:59;;;;;;;;;30.00;29.00;;;;;23.22;53.66;100484.98;110192;1264;18739;-40
2023/07/12 03:12:26;;;;;;;;;32.50;28.00;;;;;23.24;53.51;100489.50;110244;1256;21804;-39
2023/07/12 03:14:54;;;;;;;;;31.50;29.00;;;;;23.16;53.70;100485.95;110187;1256;18704;-40
2023/07/12 03:17:21;;;;;;;;;29.50;28.00;;;;;23.16;53.73;100491.55;110217;1264;20078;-40
2023/07/12 03:19:49;;;;;;;;;28.00;25.00;;;;;23.10;53.64;100485.06;110186;1249;20595;-40
2023/07/12 03:22:16;;;;;;;;;34.33;33.00;;;;;23.08;53.69;100475.71;110178;1249;22804;-39
2023/07/12 03:24:43;;;;;;;;;33.00;32.00;;;;;23.01;53.91;100468.84;110194;1264;18766;-40
2023/07/12 03:27:11;;;;;;;;;32.00;30.50;;;;;23.08;53.98;100461.63;110192;1249;20954;-40
2023/07/12 03:29:38;;;;;;;;;27.50;26.00;;;;;23.16;53.65;100445.86;110180;1250;21262;-39
2023/07/12 03:32:06;;;;;;;;;30.33;26.33;;;;;23.11;53.68;100440.86;110223;1264;18767;-40
2023/07/12 03:34:33;;;;;;;;;28.50;28.00;;;;;23.09;53.69;100439.80;110210;1257;20674;-40
2023/07/12 03:37:01;;;;;;;;;30.00;29.00;;;;;22.95;53.93;100437.60;110217;1250;21265;-40
2023/07/12 03:39:28;;;;;;;;;33.00;31.00;;;;;22.87;54.37;100433.23;110304;1248;21373;-40
2023/07/12 03:41:56;;;;;;;;;29.00;27.00;;;;;22.96;54.03;100422.43;110191;1249;20731;-40
2023/07/12 03:44:24;;;;;;;;;29.67;27.67;;;;;23.06;53.78;100417.99;110194;1256;21002;-41
2023/07/12 03:46:51;;;;;;;;;29.00;26.50;;;;;23.06;53.81;100411.30;110223;1249;20040;-40
2023/07/12 03:49:19;;;;;;;;;30.00;27.50;;;;;23.08;53.66;100404.93;110235;1264;19326;-40
2023/07/12 03:51:46;;;;;;;;;29.67;29.67;;;;;22.99;53.68;100408.49;110205;1256;19922;-40
2023/07/12 03:54:14;;;;;;;;;26.50;25.00;;;;;22.92;53.99;100404.48;110173;1264;18845;-40
2023/07/12 03:56:41;;;;;;;;;29.00;26.00;;;;;22.98;53.98;100401.95;110181;1265;22029;-41
2023/07/12 03:59:09;;;;;;;;;31.00;26.00;;;;;22.92;54.00;100400.27;110189;1264;18908;-40
2023/07/12 04:01:36;;;;;;;;;27.50;27.00;;;;;22.83;54.11;100400.77;110154;1250;20156;-40
2023/07/12 04:04:04;;;;;;;;;33.50;29.50;;;;;22.81;54.20;100398.52;110214;1264;19341;-40
2023/07/12 04:06:31;;;;;;;;;27.50;25.00;;;;;22.52;54.79;100396.05;110216;1250;20077;-40
2023/07/12 04:08:58;;;;;;;;;25.50;25.00;;;;;22.68;54.80;100389.97;110228;1264;18768;-40
2023/07/12 04:11:26;;;;;;;;;32.00;29.00;;;;;22.84;54.22;100396.67;110193;1249;20797;-40
2023/07/12 04:13:53;;;;;;;;;31.00;29.00;;;;;22.70;54.46;100392.84;110199;1264;18670;-40
2023/07/12 04:16:21;;;;;;;;;29.00;28.00;;;;;22.62;54.64;100394.38;110214;1250;22867;-40
2023/07/12 04:18:48;;;;;;;;;28.00;25.00;;;;;22.69;54.77;100395.95;110219;1250;20758;-41
2023/07/12 04:21:16;;;;;;;;;31.50;28.50;;;;;22.36;55.38;100391.41;110241;1264;22015;-39
2023/07/12 04:23:43;;;;;;;;;35.00;29.00;;;;;21.81;56.68;100389.55;110236;1256;20233;-40
2023/07/12 04:26:10;;;;;;;;;33.50;31.00;;;;;21.78;57.22;100391.95;110180;1250;21077;-41
2023/07/12 04:28:38;;;;;;;;;31.00;28.50;;;;;21.74;57.56;100394.77;110199;1250;20051;-40
2023/07/12 04:31:06;;;;;;;;;30.00;28.00;;;;;21.80;57.78;100397.17;110245;1264;20088;-40
2023/07/12 04:33:34;;;;;;;;;32.00;30.50;;;;;21.80;57.82;100397.11;110184;1250;20647;-41
2023/07/12 04:36:01;;;;;;;;;31.00;28.00;;;;;21.73;57.83;100396.67;110157;1250;20017;-41
2023/07/12 04:38:29;;;;;;;;;31.67;29.00;;;;;21.71;58.06;100395.44;110166;1249;20145;-40
2023/07/12 04:40:56;;;;;;;;;25.50;25.50;;;;;21.82;57.90;100394.90;110170;1265;22259;-41
2023/07/12 04:43:23;;;;;;;;;34.00;28.50;;;;;21.85;57.89;100399.64;110198;1264;18588;-41
2023/07/12 04:45:52;;;;;;;;;30.50;26.50;;;;;21.95;57.45;100402.36;110235;1249;20175;-38
2023/07/12 04:48:20;;;;;;;;;27.33;26.67;;;;;21.91;57.64;100401.02;110166;1250;20724;-39
2023/07/12 04:50:47;;;;;;;;;28.00;26.00;;;;;21.84;57.77;100399.67;110278;1256;20193;-39
2023/07/12 04:53:14;;;;;;;;;36.33;31.00;;;;;21.84;58.01;100397.36;110065;1250;22678;-41
2023/07/12 04:55:42;;;;;;;;;29.00;27.00;;;;;21.77;58.11;100396.95;109958;1265;19555;-41
2023/07/12 04:58:09;;;;;;;;;30.00;28.00;;;;;21.77;57.91;100392.75;110161;1250;20053;-40
2023/07/12 05:00:37;;;;;;;;;28.00;27.00;;;;;21.75;58.28;100390.45;110241;1264;18640;-40
2023/07/12 05:03:04;;;;;;;;;30.00;28.50;;;;;21.87;57.86;100380.23;110195;1264;19329;-40
2023/07/12 05:05:32;;;;;;;;;32.50;29.00;;;;;21.86;57.80;100377.57;110245;1264;18741;-39
2023/07/12 05:07:59;;;;;;;;;30.00;26.50;;;;;21.82;57.88;100370.48;110190;1249;20256;-40
2023/07/12 05:10:27;;;;;;;;;30.67;27.67;;;;;22.00;57.51;100369.57;110144;1250;20854;-40
2023/07/12 05:12:54;;;;;;;;;30.00;26.00;;;;;22.21;57.25;100369.10;110163;1250;22564;-40
2023/07/12 05:15:22;;;;;;;;;27.00;25.50;;;;;22.14;57.10;100369.91;110202;1250;20139;-39
2023/07/12 05:17:49;;;;;;;;;30.00;28.00;;;;;22.15;56.98;100369.98;110231;1256;20832;-40
2023/07/12 05:20:16;;;;;;;;;25.00;24.00;;;;;22.15;57.11;100367.96;110215;1249;19954;-40
2023/07/12 05:22:44;;;;;;;;;22.00;21.00;;;;;22.43;56.61;100368.59;110215;1264;18711;-40
2023/07/12 05:25:11;;;;;;;;;20.50;19.00;;;;;22.78;55.84;100370.55;110188;1250;20753;-41
2023/07/12 05:27:39;;;;;;;;;18.00;17.00;;;;;23.01;55.13;100364.48;110180;1250;18606;-41
2023/07/12 05:30:06;;;;;;;;;20.00;18.50;;;;;23.18;54.51;100364.73;110156;1251;21228;-41
2023/07/12 05:32:34;;;;;;;;;21.00;21.00;;;;;23.25;54.26;100362.67;110185;1251;20488;-40
2023/07/12 05:35:01;;;;;;;;;19.00;18.00;;;;;23.05;54.51;100353.27;110183;1264;18651;-40
2023/07/12 05:37:29;;;;;;;;;18.00;16.00;;;;;23.18;54.63;100351.49;110203;1256;20265;-40
2023/07/12 05:39:56;;;;;;;;;23.00;20.00;;;;;23.36;54.11;100351.20;110235;1264;20705;-39
2023/07/12 05:42:24;;;;;;;;;23.00;20.00;;;;;23.34;53.96;100348.38;110212;1264;18809;-38
2023/07/12 05:44:51;;;;;;;;;28.00;25.00;;;;;23.11;54.43;100347.75;110216;1264;20074;-39
2023/07/12 05:47:18;;;;;;;;;22.00;22.00;;;;;23.04;54.53;100348.87;110178;1250;21858;-39
2023/07/12 05:49:46;;;;;;;;;25.50;24.00;;;;;22.87;54.52;100350.45;110201;1250;20038;-40
2023/07/12 05:52:13;;;;;;;;;25.67;24.33;;;;;22.86;54.45;100351.66;110201;1264;20931;-40
2023/07/12 05:54:41;;;;;;;;;25.00;25.00;;;;;22.91;54.44;100347.42;110200;1250;20973;-39
2023/07/12 05:57:08;;;;;;;;;30.00;23.00;;;;;22.91;54.37;100349.86;110181;1256;19947;-41
2023/07/12 05:59:36;;;;;;;;;23.00;21.00;;;;;22.92;54.36;100364.21;110204;1250;20122;-41
2023/07/12 06:02:03;;;;;;;;;23.00;20.00;;;;;23.03;54.11;100361.34;110202;1248;20725;-40
2023/07/12 06:04:30;;;;;;;;;25.00;22.00;;;;;23.02;54.14;100358.84;110207;1250;20090;-40
2023/07/12 06:06:58;;;;;;;;;22.00;21.00;;;;;22.97;54.49;100352.38;110239;1250;21422;-39
2023/07/12 06:09:25;;;;;;;;;23.00;23.00;;;;;22.99;54.44;100354.62;110236;1264;19433;-39
2023/07/12 06:11:53;;;;;;;;;26.00;25.00;;;;;22.98;54.38;100346.92;110202;1250;20041;-38
2023/07/12 06:14:20;;;;;;;;;21.67;19.67;;;;;22.98;54.03;100338.00;110223;1265;22722;-38
2023/07/12 06:16:47;;;;;;;;;21.00;21.00;;;;;22.96;54.29;100327.14;110197;1264;19323;-39
2023/07/12 06:19:15;;;;;;;;;23.50;23.00;;;;;23.12;54.14;100321.34;110177;1250;19999;-40
2023/07/12 06:21:42;;;;;;;;;106.00;79.00;;;;;23.35;53.62;100309.51;110173;1264;18853;-42
2023/07/12 06:24:10;;;;;;;;;121.50;96.50;;;;;23.53;53.49;100313.73;110197;1249;20756;-41
2023/07/12 06:26:37;;;;;;;;;121.67;94.33;;;;;23.65;53.26;100314.23;110192;1250;20283;-40
2023/07/12 06:29:04;;;;;;;;;91.00;69.00;;;;;23.74;53.19;100317.27;110187;1250;21460;-42
2023/07/12 06:31:32;;;;;;;;;42.50;38.50;;;;;23.65;53.03;100315.34;110232;1249;19355;-40
2023/07/12 06:34:00;;;;;;;;;36.67;29.67;;;;;23.42;53.09;100307.55;110204;1250;22059;-40
2023/07/12 06:36:28;;;;;;;;;23.00;22.00;;;;;23.41;53.09;100308.92;110257;1250;18755;-41
2023/07/12 06:38:55;;;;;;;;;30.50;27.00;;;;;23.32;53.28;100310.83;110220;1250;19369;-41
2023/07/12 06:41:23;;;;;;;;;21.50;20.00;;;;;23.26;53.41;100310.60;110242;1265;18611;-40
2023/07/12 06:43:50;;;;;;;;;21.00;21.00;;;;;23.24;53.23;100303.91;110201;1250;20131;-41
2023/07/12 06:46:17;;;;;;;;;20.00;19.00;;;;;23.25;53.18;100301.09;110192;1264;19363;-41
2023/07/12 06:48:45;;;;;;;;;22.33;22.00;;;;;23.32;53.09;100289.73;110106;1264;20315;-40
2023/07/12 06:51:13;;;;;;;;;23.67;23.67;;;;;23.42;53.28;100286.42;110196;1264;19556;-40
2023/07/12 06:53:40;;;;;;;;;23.00;20.00;;;;;23.44;53.33;100278.11;110220;1249;20783;-40
2023/07/12 06:56:08;;;;;;;;;20.50;20.00;;;;;23.50;53.44;100275.59;110226;1265;20004;-40
2023/07/12 06:58:35;;;;;;;;;23.00;21.50;;;;;23.56;53.37;100276.54;110175;1264;21556;-39
2023/07/12 07:01:02;;;;;;;;;26.00;24.33;;;;;23.58;53.50;100276.58;110232;1264;19198;-39
2023/07/12 07:03:30;;;;;;;;;20.00;20.00;;;;;23.62;53.64;100272.33;110044;1251;136214;-39
2023/07/12 07:05:58;;;;;;;;;25.50;22.00;;;;;23.66;53.42;100269.68;110262;1250;20153;-39
2023/07/12 07:08:25;;;;;;;;;19.00;19.00;;;;;23.68;53.15;100268.23;110258;1251;20874;-39
2023/07/12 07:10:52;;;;;;;;;19.50;19.00;;;;;23.63;52.83;100269.56;110153;1264;19921;-40
2023/07/12 07:13:21;;;;;;;;;20.00;19.50;;;;;23.61;52.74;100258.89;110169;1256;20019;-40
2023/07/12 07:15:49;;;;;;;;;24.00;22.00;;;;;23.66;52.66;100260.02;110245;1256;20686;-39
2023/07/12 07:18:16;;;;;;;;;19.00;17.00;;;;;23.70;52.41;100257.98;110233;1264;22296;-40
2023/07/12 07:20:44;;;;;;;;;19.00;17.50;;;;;23.72;51.93;100245.67;110238;1250;19017;-40
2023/07/12 07:23:11;;;;;;;;;19.67;18.67;;;;;23.73;51.89;100238.85;110188;1249;22197;-39
2023/07/12 07:25:39;;;;;;;;;18.00;17.00;;;;;23.78;51.88;100233.46;110223;1249;20068;-40
2023/07/12 07:28:07;;;;;;;;;19.50;19.50;;;;;23.80;51.59;100236.11;110198;1249;22050;-39
2023/07/12 07:30:34;;;;;;;;;23.00;21.00;;;;;23.80;51.37;100229.85;110191;1264;19410;-39
2023/07/12 07:33:02;;;;;;;;;19.50;17.50;;;;;23.81;51.09;100230.31;110177;1249;19964;-39
2023/07/12 07:35:29;;;;;;;;;17.67;17.67;;;;;23.84;50.86;100220.89;110202;1256;20721;-38
2023/07/12 07:37:57;;;;;;;;;20.00;19.00;;;;;23.84;50.58;100213.39;110215;1256;20710;-38
2023/07/12 07:40:24;;;;;;;;;19.00;17.00;;;;;23.88;50.54;100208.13;110139;1250;20067;-39
2023/07/12 07:42:52;;;;;;;;;16.67;16.67;;;;;23.92;50.34;100213.22;110135;1264;20412;-39
2023/07/12 07:45:19;;;;;;;;;19.33;19.00;;;;;23.94;50.37;100235.04;110183;1264;20729;-39
2023/07/12 07:47:46;;;;;;;;;19.50;18.00;;;;;23.99;50.33;100262.66;110253;1264;19953;-39
2023/07/12 07:50:14;;;;;;;;;16.67;16.33;;;;;24.01;50.41;100271.54;110233;1250;20511;-39
2023/07/12 07:52:41;;;;;;;;;19.00;19.00;;;;;24.03;50.37;100269.83;110274;1250;20967;-40
2023/07/12 07:55:09;;;;;;;;;17.00;17.00;;;;;24.05;50.50;100267.34;110215;1256;21282;-39
2023/07/12 07:57:36;;;;;;;;;17.00;16.00;;;;;24.06;50.30;100265.89;110234;1264;18716;-39
2023/07/12 08:00:07;;;;;;;;;22.33;20.33;;;;;24.07;50.29;100265.18;110225;1249;20681;-39
2023/07/12 08:02:35;;;;;;;;;17.00;17.00;;;;;24.10;50.29;100250.87;110255;1256;19845;-37
2023/07/12 08:05:02;;;;;;;;;21.50;19.00;;;;;24.13;50.12;100245.14;110210;1250;23958;-39
2023/07/12 08:07:29;;;;;;;;;19.00;16.00;;;;;24.13;50.02;100233.23;110170;1264;19538;-39
2023/07/12 08:09:57;;;;;;;;;16.00;15.00;;;;;24.15;49.53;100230.61;110205;1249;20024;-39
2023/07/12 08:12:24;;;;;;;;;19.00;17.00;;;;;24.17;49.10;100231.99;110250;1249;20085;-39
2023/07/12 08:14:51;;;;;;;;;15.33;15.00;;;;;24.18;48.84;100230.73;110235;1264;21719;-38
2023/07/12 08:17:19;;;;;;;;;16.00;13.00;;;;;24.22;48.13;100219.61;110238;1250;20034;-38
2023/07/12 08:19:50;;;;;;;;;16.00;14.00;;;;;24.24;47.84;100208.70;110260;1250;22156;-38
2023/07/12 08:22:19;;;;;;;;;15.00;13.00;;;;;24.28;47.61;100202.80;110225;1250;19508;-38
2023/07/12 08:24:46;;;;;;;;;14.50;14.50;;;;;24.31;47.26;100196.67;110256;1248;20038;-38
2023/07/12 08:27:16;;;;;;;;;16.00;16.00;;;;;24.35;46.91;100190.24;110199;1264;22458;-38
2023/07/12 08:29:43;;;;;;;;;13.67;13.67;;;;;24.37;46.54;100186.16;110250;1250;20710;-39
2023/07/12 08:32:10;;;;;;;;;20.00;18.00;;;;;24.39;46.83;100183.77;110240;1264;18624;-38
2023/07/12 08:34:38;;;;;;;;;17.00;16.50;;;;;24.42;46.70;100182.39;110260;1250;20149;-38
2023/07/12 08:37:05;;;;;;;;;17.00;13.00;;;;;24.43;46.65;100183.69;110212;1250;22144;-38
2023/07/12 08:39:33;;;;;;;;;16.50;16.00;;;;;24.44;46.74;100190.91;110189;1250;20097;-38
2023/07/12 08:42:00;;;;;;;;;18.00;16.00;;;;;24.45;46.65;100190.95;110205;1264;19009;-38
2023/07/12 08:44:27;;;;;;;;;12.00;12.00;;;;;24.46;46.85;100187.20;110262;1250;20824;-39
2023/07/12 08:46:55;;;;;;;;;13.00;12.00;;;;;24.46;46.70;100186.51;110210;1250;21275;-39
2023/07/12 08:49:23;;;;;;;;;16.00;16.00;;;;;24.48;46.51;100190.25;110255;1250;19145;-38
2023/07/12 08:51:50;;;;;;;;;13.00;13.00;;;;;24.55;45.87;100195.23;110234;1260;20844;-38
2023/07/12 08:54:17;;;;;;;;;16.00;14.00;;;;;24.58;45.51;100188.04;110157;1264;19066;-38
2023/07/12 08:56:45;;;;;;;;;14.00;13.00;;;;;24.57;45.52;100185.56;110244;1250;21886;-39
2023/07/12 08:59:12;;;;;;;;;13.00;13.00;;;;;24.58;45.33;100186.95;110271;1250;21924;-38
2023/07/12 09:01:40;;;;;;;;;14.00;13.00;;;;;24.55;45.39;100180.64;110238;1249;20060;-38
2023/07/12 09:04:07;;;;;;;;;14.00;13.00;;;;;24.58;45.30;100177.41;110266;1264;18657;-37
2023/07/12 09:06:35;;;;;;;;;13.50;13.00;;;;;24.57;45.11;100166.92;110142;1250;20613;-37
2023/07/12 09:09:04;;;;;;;;;16.00;14.00;;;;;24.55;45.07;100163.94;110109;1250;23380;-39
2023/07/12 09:11:31;;;;;;;;;12.00;12.00;;;;;24.59;44.91;100158.44;110186;1265;18947;-39
2023/07/12 09:13:58;;;;;;;;;13.00;12.00;;;;;24.59;44.89;100149.88;110175;1265;20675;-39
2023/07/12 09:16:26;;;;;;;;;13.00;12.00;;;;;24.59;44.94;100147.14;110232;1256;19902;-37
2023/07/12 09:18:53;;;;;;;;;15.50;13.50;;;;;24.60;44.73;100142.54;110218;1264;20155;-38
2023/07/12 09:21:21;;;;;;;;;17.00;13.00;;;;;24.63;44.67;100141.27;110215;1264;19572;-39
2023/07/12 09:23:49;;;;;;;;;13.00;12.00;;;;;24.63;44.65;100142.00;110289;1264;18966;-38
2023/07/12 09:26:16;;;;;;;;;17.00;15.33;;;;;24.64;44.46;100137.05;110236;1264;18704;-38
2023/07/12 09:28:44;;;;;;;;;12.67;12.67;;;;;24.65;44.46;100132.66;110249;1264;20544;-38
2023/07/12 09:31:12;;;;;;;;;14.00;13.00;;;;;24.65;44.64;100133.64;110292;1250;21479;-38
2023/07/12 09:33:39;;;;;;;;;17.00;14.00;;;;;24.68;44.52;100135.91;110236;1264;19638;-38
2023/07/12 09:36:07;;;;;;;;;16.00;13.00;;;;;24.69;44.51;100136.52;110233;1256;20985;-39
2023/07/12 09:38:35;;;;;;;;;16.00;16.00;;;;;24.73;44.67;100134.80;110220;1264;18625;-39
2023/07/12 09:41:02;;;;;;;;;13.00;13.00;;;;;24.76;44.60;100133.05;110210;1264;20927;-40
2023/07/12 09:43:30;;;;;;;;;10.67;10.67;;;;;24.74;44.49;100135.79;110279;1250;21069;-39
2023/07/12 09:45:57;;;;;;;;;17.00;14.00;;;;;24.78;44.42;100141.59;110092;1257;20111;-40
2023/07/12 09:48:25;;;;;;;;;16.00;13.00;;;;;24.77;44.22;100141.38;110223;1251;20133;-39
2023/07/12 09:50:53;;;;;;;;;14.00;13.50;;;;;24.76;44.34;100150.87;110182;1250;20780;-39
2023/07/12 09:53:20;;;;;;;;;12.00;12.00;;;;;24.73;44.38;100158.86;110213;1250;21310;-40
2023/07/12 09:55:51;;;;;;;;;17.00;16.00;;;;;24.73;44.69;100165.58;110186;1264;19979;-39
2023/07/12 09:58:18;;;;;;;;;14.00;14.00;;;;;24.73;44.88;100171.63;110252;1250;20802;-39
2023/07/12 10:00:45;;;;;;;;;12.00;11.00;;;;;24.74;44.64;100178.88;110251;1264;18585;-39
2023/07/12 10:03:13;;;;;;;;;17.00;13.00;;;;;24.74;44.74;100191.23;110244;1250;20237;-38
2023/07/12 10:05:40;;;;;;;;;13.00;13.00;;;;;24.74;44.76;100199.08;110231;1250;20752;-39
2023/07/12 10:08:08;;;;;;;;;10.00;10.00;;;;;24.73;44.91;100206.55;110226;1250;21455;-38
2023/07/12 10:10:35;;;;;;;;;12.50;11.00;;;;;24.70;45.04;100212.02;110196;1256;21222;-37
2023/07/12 10:13:02;;;;;;;;;13.00;13.00;;;;;24.68;45.34;100217.32;110167;1256;19343;-38
2023/07/12 10:15:30;;;;;;;;;12.00;12.00;;;;;24.67;45.45;100212.35;110259;1256;19933;-38
2023/07/12 10:17:57;;;;;;;;;14.00;14.00;;;;;24.65;45.68;100211.79;110264;1250;20144;-38
2023/07/12 10:20:25;;;;;;;;;18.00;16.00;;;;;24.63;45.89;100218.84;110179;1250;22063;-38
2023/07/12 10:22:52;;;;;;;;;17.00;16.00;;;;;24.60;46.52;100226.39;110185;1257;20044;-39
2023/07/12 10:25:20;;;;;;;;;17.50;15.00;;;;;24.53;47.56;100229.83;110188;1256;22862;-39
2023/07/12 10:27:47;;;;;;;;;14.00;13.00;;;;;24.47;48.66;100226.92;110154;1250;22723;-38
2023/07/12 10:30:15;;;;;;;;;15.33;13.33;;;;;24.42;49.61;100219.77;110227;1249;20111;-38
2023/07/12 10:32:42;;;;;;;;;17.00;16.00;;;;;24.38;50.87;100221.80;110265;1250;20158;-39
2023/07/12 10:35:09;;;;;;;;;16.00;14.00;;;;;24.22;53.29;100212.10;110195;1265;19299;-38
2023/07/12 10:37:37;;;;;;;;;17.00;16.00;;;;;24.02;54.96;100195.79;110248;1250;20087;-38
2023/07/12 10:40:05;;;;;;;;;16.00;16.00;;;;;23.90;56.10;100176.58;110226;1264;20052;-39
2023/07/12 10:42:32;;;;;;;;;17.00;16.00;;;;;23.80;57.26;100160.21;110197;1264;19623;-39
2023/07/12 10:45:00;;;;;;;;;19.00;18.33;;;;;23.76;58.00;100162.66;110203;1264;22587;-38
2023/07/12 10:47:27;;;;;;;;;16.00;16.00;;;;;23.71;58.76;100160.48;110248;1264;18710;-39
2023/07/12 10:49:56;;;;;;;;;19.50;17.00;;;;;23.65;59.55;100162.77;110230;1256;22834;-39
2023/07/12 10:52:24;;;;;;;;;20.00;17.00;;;;;23.60;60.39;100157.94;110199;1264;22291;-39
2023/07/12 10:54:52;;;;;;;;;16.00;15.00;;;;;23.53;60.91;100128.45;110208;1264;18710;-39
2023/07/12 10:57:19;;;;;;;;;22.00;20.00;;;;;23.44;61.24;100119.98;110140;1256;19539;-38
2023/07/12 10:59:47;;;;;;;;;18.00;17.00;;;;;23.46;61.47;100124.10;110221;1250;20439;-37
2023/07/12 11:02:17;;;;;;;;;18.50;17.50;;;;;23.51;61.54;100126.71;110247;1249;22717;-37